Time;durP1;ratioP1;P1;durP2;ratioP2;P2;SDS_P1;SDS_P2;PMS_P1;PMS_P2;Temp;Humidity;BMP_temperature;BMP_pressure;BME280_temperature;BME280_humidity;BME280_pressure;Samples;Min_cycle;Max_cycle;Signal;HPM_P1;HPM_P2
2021/05/18 00:02:28;;;;;;;0.50;0.40;;;6.80;99.90;6.00;96099.00;;;;5068951;28;20223;-49
2021/05/18 00:05:20;;;;;;;0.43;0.43;;;6.80;99.90;6.00;96090.00;;;;5061580;28;20698;-53
2021/05/18 00:08:10;;;;;;;0.90;0.60;;;6.80;99.90;6.10;96093.00;;;;5069558;28;20226;-50
2021/05/18 00:14:09;;;;;;;0.47;0.47;;;6.80;99.90;5.70;96110.00;;;;5069899;28;20204;-51
2021/05/18 00:16:57;;;;;;;0.50;0.50;;;6.70;99.90;6.00;96126.00;;;;5069498;28;20589;-50
2021/05/18 00:19:46;;;;;;;0.70;0.40;;;6.70;99.90;6.00;96113.00;;;;5068569;28;20192;-48
2021/05/18 00:22:35;;;;;;;0.50;0.50;;;6.70;99.90;5.80;96111.00;;;;5068951;28;20224;-52
2021/05/18 00:25:23;;;;;;;1.70;0.60;;;6.70;99.90;5.80;96123.00;;;;5068962;28;20202;-54
2021/05/18 00:28:12;;;;;;;0.67;0.60;;;6.70;99.90;5.90;96131.00;;;;5068968;28;20837;-48
2021/05/18 00:31:01;;;;;;;0.43;0.40;;;6.70;99.90;6.00;96130.00;;;;5057780;28;20198;-51
2021/05/18 00:33:49;;;;;;;1.13;0.50;;;6.70;99.90;6.00;96137.00;;;;5068192;28;20231;-49
2021/05/18 00:36:38;;;;;;;0.50;0.50;;;6.70;99.90;5.80;96135.00;;;;5066141;28;20188;-50
2021/05/18 00:39:27;;;;;;;0.70;0.60;;;6.70;99.90;5.90;96128.00;;;;5061220;28;20250;-50
2021/05/18 00:42:16;;;;;;;0.60;0.60;;;6.70;99.90;5.90;96130.00;;;;5069450;28;20230;-51
2021/05/18 00:45:06;;;;;;;1.17;0.40;;;6.70;99.90;5.60;96121.00;;;;5068331;28;20207;-51
2021/05/18 00:47:55;;;;;;;0.90;0.50;;;6.60;99.90;5.80;96133.00;;;;5068007;28;20231;-50
2021/05/18 00:50:50;;;;;;;1.10;0.43;;;6.60;99.90;5.80;96140.00;;;;5067439;28;20579;-49
2021/05/18 00:53:41;;;;;;;0.50;0.40;;;6.60;99.90;5.80;96138.00;;;;5069338;28;20220;-50
2021/05/18 00:58:26;;;;;;;0.50;0.50;;;6.60;99.90;5.90;96122.00;;;;5055609;28;20203;-51
2021/05/18 00:59:42;;;;;;;0.30;0.30;;;6.60;99.90;5.70;96138.00;;;;5068585;28;20272;-48
2021/05/18 01:02:30;;;;;;;0.30;0.30;;;6.60;99.90;5.60;96130.00;;;;5067192;28;20685;-50
2021/05/18 01:05:20;;;;;;;0.57;0.47;;;6.60;99.90;5.40;96130.00;;;;5068397;28;20215;-53
2021/05/18 01:08:08;;;;;;;0.50;0.50;;;6.50;99.90;5.20;96131.00;;;;5068394;28;20232;-50
2021/05/18 01:10:57;;;;;;;1.00;0.40;;;6.40;99.90;5.40;96122.00;;;;5068545;28;20593;-51
2021/05/18 01:13:46;;;;;;;0.30;0.20;;;6.30;99.90;5.40;96119.00;;;;5067402;28;20721;-51
2021/05/18 01:16:37;;;;;;;2.50;0.50;;;6.30;99.90;5.60;96139.00;;;;5068251;28;20210;-53
2021/05/18 01:19:26;;;;;;;0.40;0.20;;;6.40;99.90;5.50;96147.00;;;;5056580;28;20219;-52
2021/05/18 01:22:15;;;;;;;2.80;0.87;;;6.40;99.90;5.50;96145.00;;;;5067636;28;20235;-54
2021/05/18 01:25:05;;;;;;;5.10;0.47;;;6.30;99.90;5.50;96141.00;;;;5068705;28;20199;-54
2021/05/18 01:27:54;;;;;;;0.30;0.30;;;6.40;99.90;5.60;96146.00;;;;5067958;28;20243;-54
2021/05/18 01:30:42;;;;;;;0.40;0.40;;;6.40;99.90;5.60;96157.00;;;;5067412;28;20211;-51
2021/05/18 01:33:31;;;;;;;2.87;0.30;;;6.40;99.90;5.40;96153.00;;;;5066786;28;20239;-49
2021/05/18 01:36:21;;;;;;;0.20;0.20;;;6.40;99.90;5.50;96158.00;;;;5068051;28;20204;-50
2021/05/18 01:39:30;;;;;;;0.30;0.30;;;6.60;99.90;5.60;96165.00;;;;5057593;28;20218;-48
2021/05/18 01:45:29;;;;;;;1.60;0.37;;;6.40;99.90;5.30;96170.00;;;;5057363;28;20275;-53
2021/05/18 01:48:17;;;;;;;0.33;0.30;;;6.30;99.90;5.50;96168.00;;;;5068211;28;20714;-50
2021/05/18 01:51:06;;;;;;;0.37;0.37;;;6.30;99.90;5.50;96175.00;;;;5067731;28;20208;-49
2021/05/18 01:53:56;;;;;;;4.43;0.60;;;6.30;99.90;5.50;96176.00;;;;5068263;28;20231;-48
2021/05/18 01:56:50;;;;;;;0.40;0.40;;;6.30;99.90;5.60;96184.00;;;;5066861;28;20587;-48
2021/05/18 01:59:38;;;;;;;0.50;0.30;;;6.30;99.90;5.60;96177.00;;;;5068383;28;20221;-53
2021/05/18 02:02:27;;;;;;;1.17;0.40;;;6.40;99.90;5.40;96186.00;;;;5064137;28;20619;-54
2021/05/18 02:05:17;;;;;;;0.53;0.53;;;6.40;99.90;5.30;96196.00;;;;5067746;28;20208;-54
2021/05/18 02:08:14;;;;;;;0.20;0.20;;;6.30;99.90;5.40;96187.00;;;;5067435;28;20246;-54
2021/05/18 02:11:03;;;;;;;0.30;0.30;;;6.30;99.90;5.40;96188.00;;;;5068270;28;20207;-51
2021/05/18 02:13:55;;;;;;;0.50;0.50;;;6.30;99.90;5.30;96192.00;;;;5067458;28;20224;-54
2021/05/18 02:16:44;;;;;;;0.57;0.37;;;6.30;99.90;5.40;96200.00;;;;5068012;28;20211;-52
2021/05/18 02:19:51;;;;;;;0.37;0.37;;;6.30;99.90;5.30;96202.00;;;;5067331;28;20215;-53
2021/05/18 02:25:49;;;;;;;0.23;0.23;;;6.20;99.90;5.30;96217.00;;;;5055761;28;20660;-50
2021/05/18 02:28:37;;;;;;;0.90;0.50;;;6.20;99.90;5.20;96203.00;;;;5067639;28;20227;-50
2021/05/18 02:31:26;;;;;;;0.93;0.63;;;6.20;99.90;5.20;96201.00;;;;5066143;28;20207;-54
2021/05/18 02:34:15;;;;;;;1.67;0.40;;;6.10;99.90;5.20;96198.00;;;;5067533;28;20203;-48
2021/05/18 02:37:04;;;;;;;0.90;0.33;;;6.10;99.90;5.20;96203.00;;;;5059066;28;20206;-51
2021/05/18 02:39:53;;;;;;;0.70;0.57;;;6.00;99.90;5.10;96200.00;;;;5061091;28;20223;-53
2021/05/18 02:42:41;;;;;;;0.40;0.40;;;6.00;99.90;4.90;96198.00;;;;5066106;28;20224;-48
2021/05/18 02:45:33;;;;;;;0.40;0.40;;;6.00;99.90;4.90;96198.00;;;;5066722;28;20204;-52
2021/05/18 02:51:28;;;;;;;0.77;0.40;;;5.90;99.90;4.80;96191.00;;;;5065737;28;20220;-52
2021/05/18 02:54:21;;;;;;;2.20;0.40;;;5.80;99.90;4.80;96204.00;;;;5066476;28;20200;-52
2021/05/18 02:57:11;;;;;;;0.37;0.37;;;5.80;99.90;4.80;96203.00;;;;5067225;28;20215;-54
2021/05/18 03:00:01;;;;;;;1.60;0.70;;;5.80;99.90;4.80;96203.00;;;;5054318;28;20208;-48
2021/05/18 03:02:50;;;;;;;0.50;0.50;;;6.60;99.90;4.70;96207.00;;;;5064144;28;20220;-49
2021/05/18 03:05:40;;;;;;;2.67;0.60;;;5.70;99.90;4.50;96205.00;;;;5065329;28;20206;-52
2021/05/18 03:08:28;;;;;;;0.30;0.30;;;5.60;99.90;4.50;96201.00;;;;5066305;28;20231;-47
2021/05/18 03:11:16;;;;;;;0.53;0.50;;;5.60;99.90;4.60;96211.00;;;;5063807;28;20451;-53
2021/05/18 03:14:06;;;;;;;0.40;0.40;;;5.50;99.90;4.30;96220.00;;;;5065744;28;20208;-50
2021/05/18 03:16:54;;;;;;;0.50;0.50;;;5.50;99.90;4.20;96223.00;;;;5065927;28;20192;-54
2021/05/18 03:19:43;;;;;;;1.10;0.67;;;5.40;99.90;4.20;96223.00;;;;5065734;28;20204;-52
2021/05/18 03:22:32;;;;;;;1.17;0.50;;;5.30;99.90;4.30;96213.00;;;;5048561;28;20621;-53
2021/05/18 03:25:21;;;;;;;0.37;0.37;;;5.30;99.90;4.30;96215.00;;;;5050199;28;20433;-53
2021/05/18 03:28:09;;;;;;;0.30;0.30;;;5.20;99.90;4.40;96219.00;;;;5065984;28;20473;-51
2021/05/18 03:31:11;;;;;;;0.40;0.40;;;5.30;99.90;4.50;96234.00;;;;5065668;28;20422;-51
2021/05/18 03:37:12;;;;;;;0.57;0.57;;;5.40;99.90;4.80;96240.00;;;;5059386;28;20196;-54
2021/05/18 03:40:04;;;;;;;0.70;0.70;;;5.50;99.90;4.70;96242.00;;;;5062335;28;20446;-54
2021/05/18 03:42:57;;;;;;;0.60;0.40;;;5.50;99.90;4.40;96237.00;;;;5059523;28;20449;-54
2021/05/18 03:45:51;;;;;;;0.53;0.50;;;5.50;99.90;4.10;96238.00;;;;5059080;28;20254;-54
2021/05/18 03:48:53;;;;;;;1.90;0.40;;;5.30;99.90;4.10;96246.00;;;;5044934;28;20212;-52
2021/05/18 03:55:03;;;;;;;1.07;0.40;;;5.20;99.90;4.50;96247.00;;;;5046667;28;20426;-49
2021/05/18 04:04:12;;;;;;;0.60;0.40;;;5.30;99.90;4.40;96271.00;;;;5065965;28;20729;-53
2021/05/18 04:10:19;;;;;;;0.60;0.40;;;5.30;99.90;4.70;96274.00;;;;5057166;28;20230;-53
2021/05/18 04:13:19;;;;;;;0.40;0.40;;;5.40;99.90;4.70;96273.00;;;;5057927;28;20461;-53
2021/05/18 04:19:15;;;;;;;1.00;0.90;;;5.50;99.90;4.80;96288.00;;;;5065108;28;20419;-48
2021/05/18 04:41:04;;;;;;;0.87;0.70;;;6.00;99.90;5.40;96291.00;;;;5050237;28;20201;-52
2021/05/18 04:53:18;;;;;;;1.73;0.53;;;6.30;99.90;5.40;96289.00;;;;5068143;28;20231;-53
2021/05/18 04:59:16;;;;;;;0.93;0.57;;;6.30;99.90;6.00;96286.00;;;;5068497;28;20201;-50
2021/05/18 05:02:33;;;;;;;0.67;0.50;;;6.50;99.90;6.20;96288.00;;;;5066021;28;20235;-53
2021/05/18 05:08:26;;;;;;;11.53;5.33;;;6.90;99.90;6.70;96291.00;;;;5059054;28;20227;-52
2021/05/18 05:14:24;;;;;;;1.27;1.17;;;7.20;99.90;6.90;96306.00;;;;5068727;28;20576;-52
2021/05/18 05:17:14;;;;;;;0.87;0.60;;;7.40;99.90;7.00;96313.00;;;;5069127;28;20204;-51
2021/05/18 05:20:05;;;;;;;4.23;0.50;;;7.50;99.90;7.10;96319.00;;;;5068807;28;20250;-49
2021/05/18 05:22:53;;;;;;;0.80;0.80;;;7.60;99.90;7.50;96312.00;;;;5068009;28;20227;-49
2021/05/18 05:25:41;;;;;;;4.80;1.57;;;7.80;99.90;7.90;96327.00;;;;5060083;28;20242;-50
2021/05/18 05:28:30;;;;;;;4.37;1.20;;;8.00;99.90;8.10;96331.00;;;;5063192;28;20231;-48
2021/05/18 05:31:19;;;;;;;2.63;1.33;;;8.20;99.90;8.40;96323.00;;;;5067424;28;20208;-51
2021/05/18 05:34:07;;;;;;;3.63;1.40;;;8.50;99.90;8.50;96324.00;;;;5062093;28;20213;-49
2021/05/18 05:36:56;;;;;;;1.67;1.03;;;8.70;99.90;8.70;96323.00;;;;5061396;28;20219;-48
2021/05/18 05:39:44;;;;;;;2.53;1.17;;;8.90;99.90;8.90;96326.00;;;;5063267;28;20759;-51
2021/05/18 05:42:32;;;;;;;1.00;1.00;;;9.10;99.90;8.60;96329.00;;;;5066566;28;20600;-48
2021/05/18 05:45:21;;;;;;;1.07;0.97;;;9.20;99.90;8.70;96324.00;;;;5068129;28;20197;-51
2021/05/18 05:48:10;;;;;;;1.57;0.87;;;9.30;99.90;8.90;96318.00;;;;5066699;28;20207;-54
2021/05/18 05:50:58;;;;;;;1.90;1.43;;;9.40;99.90;9.50;96325.00;;;;5065199;28;20196;-51
2021/05/18 05:53:47;;;;;;;1.93;1.00;;;9.60;99.90;10.00;96333.00;;;;5067257;28;20925;-51
2021/05/18 05:56:36;;;;;;;2.10;1.13;;;9.90;99.90;10.30;96332.00;;;;5066734;28;20207;-54
2021/05/18 05:59:24;;;;;;;1.73;1.33;;;10.20;99.90;10.10;96342.00;;;;5066486;28;20211;-48
2021/05/18 06:02:12;;;;;;;1.40;1.00;;;10.40;99.90;10.00;96346.00;;;;5066170;28;20220;-54
2021/05/18 06:05:01;;;;;;;0.60;0.60;;;10.60;99.90;10.30;96343.00;;;;5056661;28;20212;-51
2021/05/18 06:07:50;;;;;;;3.23;1.37;;;10.70;99.90;10.50;96349.00;;;;5066790;28;20200;-53
2021/05/18 06:10:42;;;;;;;3.97;1.10;;;10.80;99.90;10.80;96340.00;;;;5063763;28;20199;-51
2021/05/18 06:47:42;;;;;;;1.33;0.60;;;13.70;99.90;13.50;96368.00;;;;5067041;28;20211;-54
2021/05/18 06:50:32;;;;;;;1.77;0.50;;;13.90;99.90;13.70;96355.00;;;;5064798;28;20216;-53
2021/05/18 06:53:21;;;;;;;3.10;0.60;;;14.00;99.90;14.30;96346.00;;;;5060706;28;20234;-52
2021/05/18 06:56:10;;;;;;;0.40;0.30;;;14.20;99.90;14.70;96363.00;;;;5064912;28;20196;-50
2021/05/18 07:02:04;;;;;;;0.60;0.47;;;14.80;99.90;15.40;96374.00;;;;5054411;28;20283;-52
2021/05/18 07:04:55;;;;;;;0.30;0.30;;;15.10;99.90;15.00;96356.00;;;;5060826;28;20223;-52
2021/05/18 07:07:44;;;;;;;0.30;0.30;;;15.40;98.10;15.70;96355.00;;;;5054938;28;20492;-50
2021/05/18 07:10:33;;;;;;;0.47;0.23;;;15.60;99.00;15.00;96356.00;;;;5065041;28;20227;-51
2021/05/18 07:13:22;;;;;;;0.53;0.30;;;15.70;91.70;14.90;96362.00;;;;5065709;28;20216;-54
2021/05/18 07:16:10;;;;;;;0.57;0.43;;;15.60;88.60;15.30;96363.00;;;;5053735;28;20208;-50
2021/05/18 07:18:59;;;;;;;1.03;0.40;;;15.60;88.10;15.90;96372.00;;;;5067583;28;20200;-53
2021/05/18 07:21:48;;;;;;;1.60;0.13;;;15.80;88.00;16.60;96355.00;;;;5061334;28;20211;-49
2021/05/18 07:24:36;;;;;;;2.10;0.23;;;16.10;89.00;16.70;96371.00;;;;5057464;28;20204;-54
2021/05/18 07:27:25;;;;;;;1.70;0.10;;;16.40;77.80;16.80;96383.00;;;;5058595;28;20211;-52
2021/05/18 07:30:15;;;;;;;0.20;0.10;;;16.70;74.20;16.70;96358.00;;;;5064508;28;20224;-52
2021/05/18 07:33:04;;;;;;;0.40;0.40;;;16.80;71.50;16.60;96372.00;;;;5059539;28;20235;-51
2021/05/18 07:35:56;;;;;;;1.43;0.10;;;16.90;68.70;16.70;96374.00;;;;5067164;28;20211;-55
2021/05/18 07:38:49;;;;;;;0.20;0.10;;;17.00;68.90;16.80;96368.00;;;;5052683;28;20222;-54
2021/05/18 07:41:37;;;;;;;0.20;0.10;;;17.00;68.00;17.20;96371.00;;;;5065930;28;20211;-56
2021/05/18 07:44:26;;;;;;;0.50;0.13;;;17.20;68.10;17.30;96386.00;;;;5065505;28;20218;-51
2021/05/18 07:47:15;;;;;;;0.20;0.10;;;17.40;67.50;17.50;96395.00;;;;5057204;28;20904;-52
2021/05/18 07:50:08;;;;;;;1.17;0.10;;;17.50;65.60;16.60;96411.00;;;;5052390;28;20220;-51
2021/05/18 07:59:22;;;;;;;0.20;0.10;;;17.20;61.80;16.90;96421.00;;;;5066189;28;20682;-51
2021/05/18 08:02:32;;;;;;;0.20;0.10;;;17.20;60.00;16.40;96419.00;;;;5063023;28;20216;-48
2021/05/18 08:05:21;;;;;;;0.20;0.10;;;17.10;60.40;16.10;96382.00;;;;5057392;28;20203;-50
2021/05/18 08:08:10;;;;;;;0.20;0.10;;;16.90;58.40;16.10;96398.00;;;;5066140;28;20219;-53
2021/05/18 08:11:01;;;;;;;0.20;0.10;;;16.80;59.00;16.50;96382.00;;;;5059141;28;20226;-49
2021/05/18 08:13:55;;;;;;;0.30;0.20;;;16.80;59.80;16.50;96390.00;;;;5060818;28;20304;-51
2021/05/18 08:17:06;;;;;;;0.30;0.20;;;16.80;58.70;16.60;96394.00;;;;5065116;28;20207;-50
2021/05/18 09:49:07;;;;;;;0.20;0.10;;;15.20;74.70;15.30;96390.00;;;;5067195;28;20207;-51
2021/05/18 10:35:47;;;;;;;0.20;0.10;;;19.70;55.10;21.10;96366.00;;;;5066077;28;20211;-54
2021/05/18 10:38:39;;;;;;;0.30;0.17;;;20.20;56.70;20.90;96364.00;;;;5053120;28;20196;-51
2021/05/18 10:41:28;;;;;;;0.20;0.10;;;20.60;55.60;18.80;96348.00;;;;5063499;28;20242;-54
2021/05/18 10:44:17;;;;;;;0.30;0.20;;;20.00;50.10;20.60;96348.00;;;;5065552;28;20208;-54
2021/05/18 10:47:06;;;;;;;0.33;0.13;;;20.20;52.60;21.10;96352.00;;;;5066758;28;20889;-52
2021/05/18 10:49:54;;;;;;;0.40;0.20;;;20.50;52.70;21.80;96345.00;;;;5066360;28;20352;-56
2021/05/18 10:52:43;;;;;;;0.30;0.20;;;21.00;53.60;22.30;96337.00;;;;5065421;28;20223;-56
2021/05/18 10:55:31;;;;;;;0.20;0.20;;;21.50;52.90;23.10;96316.00;;;;5065672;28;20631;-54
2021/05/18 10:58:28;;;;;;;0.30;0.10;;;22.00;54.80;22.50;96310.00;;;;5055125;28;20196;-52
2021/05/18 11:01:16;;;;;;;0.20;0.00;;;22.30;53.30;22.20;96317.00;;;;5065840;28;20624;-54
2021/05/18 11:04:05;;;;;;;0.20;0.10;;;22.30;51.70;21.00;96375.00;;;;5062402;28;20200;-56
2021/05/18 11:06:55;;;;;;;0.20;0.10;;;22.10;49.60;22.20;96345.00;;;;5065706;28;20215;-56
2021/05/18 11:09:43;;;;;;;0.63;0.20;;;22.20;51.10;20.50;96366.00;;;;5065528;28;20208;-56
2021/05/18 11:12:31;;;;;;;2.07;0.27;;;22.00;51.40;22.00;96309.00;;;;5065360;28;20231;-51
2021/05/18 11:15:22;;;;;;;0.30;0.23;;;22.00;53.40;21.80;96301.00;;;;5065632;28;20200;-51
2021/05/18 11:18:11;;;;;;;0.20;0.10;;;22.00;51.30;21.80;96308.00;;;;5066537;28;20208;-53
2021/05/18 11:21:11;;;;;;;0.30;0.10;;;22.40;53.10;19.70;96280.00;;;;5066004;28;20204;-54
2021/05/18 11:24:10;;;;;;;0.27;0.10;;;21.80;49.10;19.80;96286.00;;;;5064834;28;20284;-52
2021/05/18 11:26:58;;;;;;;0.20;0.10;;;20.90;51.00;20.50;96310.00;;;;5065500;28;20219;-53
2021/05/18 11:29:46;;;;;;;0.20;0.10;;;20.90;49.60;21.00;96282.00;;;;5064690;28;20196;-50
2021/05/18 11:32:36;;;;;;;0.20;0.10;;;21.00;51.20;22.80;96264.00;;;;5048120;28;20690;-52
2021/05/18 11:35:24;;;;;;;0.30;0.10;;;21.60;51.60;21.90;96360.00;;;;5064377;28;20212;-50
2021/05/18 11:38:15;;;;;;;0.30;0.10;;;21.80;50.40;21.10;96358.00;;;;5066228;28;20556;-53
2021/05/18 11:41:04;;;;;;;0.50;0.20;;;21.70;49.60;19.90;96362.00;;;;5065761;28;20208;-51
2021/05/18 11:43:55;;;;;;;0.20;0.10;;;21.40;47.90;20.80;96261.00;;;;5063568;28;20208;-48
2021/05/18 11:46:46;;;;;;;0.30;0.10;;;21.10;49.20;21.00;96288.00;;;;5057800;28;20586;-49
2021/05/18 11:49:35;;;;;;;0.20;0.10;;;21.10;49.70;20.50;96352.00;;;;5060795;28;20200;-53
2021/05/18 11:52:23;;;;;;;0.20;0.10;;;21.00;49.20;20.60;96345.00;;;;5067336;28;20224;-48
2021/05/18 11:55:31;;;;;;;0.20;0.10;;;20.90;50.60;20.20;96342.00;;;;5066825;28;20920;-52
2021/05/18 11:58:20;;;;;;;0.30;0.20;;;20.80;50.10;20.50;96330.00;;;;5060579;28;20695;-50
2021/05/18 12:01:09;;;;;;;0.33;0.23;;;20.70;50.80;20.70;96341.00;;;;5071772;28;20203;-54
2021/05/18 12:04:06;;;;;;;0.70;0.10;;;20.70;51.50;20.50;96344.00;;;;5066465;28;20230;-50
2021/05/18 12:06:58;;;;;;;0.40;0.30;;;20.80;51.30;20.70;96329.00;;;;5072305;28;20204;-55
2021/05/18 12:09:48;;;;;;;0.20;0.17;;;20.80;51.60;21.80;96251.00;;;;5071813;28;20207;-52
2021/05/18 12:12:37;;;;;;;0.40;0.30;;;21.20;52.10;21.60;96311.00;;;;5071226;28;20222;-53
2021/05/18 12:15:26;;;;;;;0.47;0.20;;;21.30;52.40;21.50;96321.00;;;;5072490;28;20208;-52
2021/05/18 12:18:14;;;;;;;0.27;0.13;;;21.60;50.70;20.30;96311.00;;;;5071268;28;20234;-55
2021/05/18 12:21:13;;;;;;;0.20;0.10;;;21.40;49.40;22.70;96328.00;;;;5071067;28;20574;-54
2021/05/18 12:24:10;;;;;;;0.20;0.10;;;21.80;50.60;21.50;96324.00;;;;5070657;28;20207;-55
2021/05/18 12:27:01;;;;;;;3.63;0.50;;;22.00;50.60;20.10;96320.00;;;;5061584;28;20215;-53
2021/05/18 12:29:53;;;;;;;0.20;0.10;;;21.60;49.10;20.60;96241.00;;;;5065253;28;20216;-52
2021/05/18 12:32:49;;;;;;;0.20;0.20;;;21.30;45.80;21.60;96243.00;;;;5071757;28;20234;-48
2021/05/18 12:35:37;;;;;;;0.20;0.10;;;21.40;48.20;21.40;96234.00;;;;5060160;28;20691;-55
2021/05/18 12:38:25;;;;;;;0.60;0.20;;;21.60;47.10;21.70;96310.00;;;;5057160;28;20211;-53
2021/05/18 12:41:15;;;;;;;0.30;0.20;;;21.60;48.80;21.50;96289.00;;;;5070992;28;20705;-55
2021/05/18 12:44:06;;;;;;;0.70;0.30;;;21.70;50.10;22.90;96276.00;;;;5071559;28;20211;-54
2021/05/18 12:46:59;;;;;;;0.50;0.30;;;22.00;50.20;22.40;96301.00;;;;5072536;28;20206;-55
2021/05/18 12:49:50;;;;;;;0.20;0.07;;;22.20;50.30;23.10;96234.00;;;;5067715;28;20200;-52
2021/05/18 12:52:40;;;;;;;0.33;0.20;;;22.50;50.20;23.70;96230.00;;;;5062241;28;20224;-57
2021/05/18 12:55:31;;;;;;;0.57;0.37;;;23.00;47.80;23.80;96223.00;;;;5060942;28;20768;-53
2021/05/18 12:58:29;;;;;;;0.57;0.20;;;23.30;48.20;25.50;96237.00;;;;5063102;28;20207;-55
2021/05/18 13:01:18;;;;;;;1.07;0.50;;;23.90;48.20;26.70;96248.00;;;;5070718;28;20241;-57
2021/05/18 13:04:11;;;;;;;0.37;0.10;;;24.60;49.50;25.50;96243.00;;;;5065611;28;20708;-56
2021/05/18 13:06:59;;;;;;;4.23;0.30;;;25.10;45.10;26.90;96230.00;;;;5066177;28;20674;-55
2021/05/18 13:10:05;;;;;;;1.70;0.23;;;25.50;45.30;27.60;96242.00;;;;5067729;28;20212;-53
2021/05/18 13:13:01;;;;;;;0.50;0.20;;;26.10;46.00;26.80;96236.00;;;;5068208;28;20237;-57
2021/05/18 13:15:52;;;;;;;0.20;0.13;;;26.60;42.60;27.30;96236.00;;;;5068293;28;20214;-58
2021/05/18 13:18:41;;;;;;;0.30;0.10;;;26.90;42.70;26.30;96231.00;;;;5068576;28;20204;-57
2021/05/18 13:21:34;;;;;;;1.43;0.30;;;27.20;42.10;27.30;96223.00;;;;5055224;28;20218;-57
2021/05/18 13:26:25;;;;;;;0.20;0.10;;;27.50;42.20;25.60;96310.00;;;;5067418;28;20203;-56
2021/05/18 13:27:33;;;;;;;1.37;0.20;;;27.10;41.20;25.60;96291.00;;;;5064217;28;20199;-57
2021/05/18 13:30:24;;;;;;;0.30;0.20;;;26.60;41.90;23.80;96307.00;;;;5054211;28;20196;-56
2021/05/18 13:33:13;;;;;;;0.20;0.10;;;25.90;42.60;22.10;96316.00;;;;5064088;28;20229;-55
2021/05/18 13:36:03;;;;;;;0.20;0.10;;;24.90;42.60;20.60;96307.00;;;;5055182;28;20226;-54
2021/05/18 13:38:52;;;;;;;0.57;0.20;;;23.20;43.30;20.20;96308.00;;;;5054028;28;20212;-56
2021/05/18 13:41:41;;;;;;;0.20;0.20;;;22.30;45.70;19.50;96311.00;;;;5056311;28;20306;-52
2021/05/18 13:44:29;;;;;;;0.33;0.10;;;21.60;46.10;18.60;96314.00;;;;5062557;28;20229;-55
2021/05/18 13:47:18;;;;;;;0.30;0.20;;;20.30;46.90;18.10;96302.00;;;;5068276;28;20204;-54
2021/05/18 13:50:09;;;;;;;0.30;0.10;;;19.60;48.60;18.40;96307.00;;;;5069908;28;20211;-52
2021/05/18 13:52:58;;;;;;;0.37;0.20;;;19.20;49.30;18.20;96310.00;;;;5066888;28;20722;-51
2021/05/18 13:55:47;;;;;;;0.63;0.20;;;19.00;50.00;18.10;96311.00;;;;5067452;28;20199;-50
2021/05/18 13:58:35;;;;;;;0.30;0.30;;;18.90;49.80;18.30;96303.00;;;;5062589;28;20204;-49
2021/05/18 14:01:24;;;;;;;0.27;0.20;;;18.70;50.40;18.30;96314.00;;;;5066864;28;20206;-54
2021/05/18 14:04:12;;;;;;;0.20;0.20;;;18.70;50.70;18.30;96299.00;;;;5053199;28;20195;-54
2021/05/18 14:07:14;;;;;;;0.20;0.10;;;18.70;51.50;18.30;96312.00;;;;5049394;28;20690;-52
2021/05/18 14:10:02;;;;;;;0.57;0.33;;;18.60;51.70;18.30;96304.00;;;;5067396;28;20203;-53
2021/05/18 14:12:51;;;;;;;0.27;0.27;;;18.60;50.90;18.00;96309.00;;;;5056736;28;20728;-52
2021/05/18 14:15:41;;;;;;;0.30;0.30;;;18.50;51.50;18.10;96308.00;;;;5059823;28;20203;-51
2021/05/18 14:18:31;;;;;;;0.30;0.20;;;18.50;52.30;18.10;96304.00;;;;5052311;28;20204;-57
2021/05/18 14:21:21;;;;;;;0.20;0.10;;;18.50;53.40;18.10;96311.00;;;;5055629;28;20196;-57
2021/05/18 14:24:18;;;;;;;0.77;0.30;;;18.50;52.60;18.10;96313.00;;;;5062291;28;20207;-53
2021/05/18 14:27:09;;;;;;;4.27;0.70;;;18.50;52.90;17.80;96317.00;;;;5062599;28;20211;-55
2021/05/18 14:29:58;;;;;;;3.33;1.07;;;18.40;55.30;16.50;96311.00;;;;5056145;28;20660;-52
2021/05/18 14:32:46;;;;;;;2.23;0.40;;;18.10;64.50;16.10;96318.00;;;;5053831;28;20412;-54
2021/05/18 14:35:35;;;;;;;0.50;0.40;;;17.70;71.10;15.80;96325.00;;;;5066467;28;20207;-54
2021/05/18 14:38:25;;;;;;;0.70;0.30;;;17.30;78.10;15.30;96341.00;;;;5058368;28;20196;-52
2021/05/18 14:44:28;;;;;;;0.20;0.20;;;16.40;93.50;14.80;96365.00;;;;5052432;28;20223;-52
2021/05/18 14:47:21;;;;;;;0.40;0.30;;;15.80;84.60;13.80;96429.00;;;;5055346;28;20698;-57
2021/05/18 14:53:43;;;;;;;5.57;1.80;;;14.30;99.90;12.00;96392.00;;;;4953880;28;20726;-55
2021/05/18 14:56:32;;;;;;;2.63;1.57;;;13.50;99.90;11.90;96391.00;;;;5067930;28;20214;-56
2021/05/18 14:59:20;;;;;;;3.60;0.30;;;13.10;99.90;11.70;96389.00;;;;5063343;28;20204;-56
2021/05/18 15:02:09;;;;;;;1.73;0.60;;;12.80;99.90;11.20;96387.00;;;;5055062;28;20220;-55
2021/05/18 15:04:58;;;;;;;16.67;1.20;;;12.50;99.90;11.40;96375.00;;;;5056886;28;20202;-56
2021/05/18 15:07:47;;;;;;;2.03;0.50;;;12.40;99.90;12.10;96282.00;;;;5062530;28;20203;-55
2021/05/18 15:10:35;;;;;;;0.50;0.50;;;12.40;99.90;14.30;96300.00;;;;5055484;28;20238;-55
2021/05/18 15:13:25;;;;;;;0.20;0.20;;;13.20;99.90;16.00;96258.00;;;;5057057;28;20691;-57
2021/05/18 15:16:13;;;;;;;0.20;0.20;;;14.40;99.90;16.80;96321.00;;;;5052366;28;20204;-56
2021/05/18 15:19:06;;;;;;;0.30;0.30;;;15.60;99.90;17.00;96346.00;;;;5058397;28;20583;-54
2021/05/18 15:21:57;;;;;;;0.67;0.50;;;16.50;99.90;13.90;96355.00;;;;5065043;28;20887;-53
2021/05/18 15:24:45;;;;;;;4.00;0.57;;;16.00;99.90;14.60;96369.00;;;;5060520;28;20207;-56
2021/05/18 15:27:34;;;;;;;1.17;0.30;;;15.60;99.90;14.20;96362.00;;;;5057432;28;20204;-55
2021/05/18 15:30:24;;;;;;;2.37;1.43;;;15.40;99.90;13.80;96359.00;;;;5066348;28;20563;-55
2021/05/18 15:33:12;;;;;;;1.10;0.40;;;14.90;99.90;15.50;96290.00;;;;5064935;28;20220;-57
2021/05/18 15:36:02;;;;;;;0.20;0.20;;;15.10;99.90;17.10;96294.00;;;;5064430;28;20195;-56
2021/05/18 15:38:50;;;;;;;1.83;0.40;;;16.10;99.90;17.50;96356.00;;;;5053091;28;20208;-57
2021/05/18 15:41:38;;;;;;;0.40;0.30;;;16.80;99.90;17.10;96357.00;;;;5065512;28;20196;-56
2021/05/18 15:44:27;;;;;;;0.30;0.30;;;17.10;99.90;16.40;96357.00;;;;5063824;28;20196;-56
2021/05/18 15:47:16;;;;;;;2.57;0.33;;;17.10;99.90;15.40;96356.00;;;;5064620;28;20207;-57
2021/05/18 15:50:07;;;;;;;0.40;0.40;;;16.80;99.90;15.40;96334.00;;;;5051622;28;20200;-57
2021/05/18 15:52:56;;;;;;;3.33;0.40;;;16.40;99.90;15.80;96342.00;;;;5049928;28;20234;-58
2021/05/18 15:55:44;;;;;;;0.90;0.50;;;16.30;99.90;16.40;96300.00;;;;5064178;28;20837;-56
2021/05/18 15:58:32;;;;;;;1.40;1.20;;;16.50;99.90;17.50;96306.00;;;;5055180;28;20675;-58
2021/05/18 16:01:21;;;;;;;0.90;0.40;;;17.00;99.90;17.10;96357.00;;;;5060426;28;20204;-56
2021/05/18 16:04:11;;;;;;;1.67;0.73;;;17.30;99.90;16.00;96353.00;;;;5064329;28;20213;-55
2021/05/18 16:07:06;;;;;;;1.10;0.60;;;17.20;99.90;15.90;96359.00;;;;5063912;28;20200;-57
2021/05/18 16:09:55;;;;;;;0.40;0.30;;;17.00;99.90;15.30;96361.00;;;;5064616;28;20242;-56
2021/05/18 16:12:43;;;;;;;1.00;0.30;;;16.60;99.90;14.70;96363.00;;;;5063247;28;20755;-57
2021/05/18 16:15:31;;;;;;;0.80;0.40;;;16.10;99.90;14.60;96377.00;;;;5064704;28;20207;-56
2021/05/18 16:18:20;;;;;;;2.93;0.30;;;15.70;99.90;14.10;96371.00;;;;5064421;28;20702;-55
2021/05/18 16:21:12;;;;;;;0.63;0.30;;;15.40;99.90;14.10;96381.00;;;;5057679;28;20212;-53
2021/05/18 16:24:00;;;;;;;0.40;0.40;;;15.00;99.90;13.60;96375.00;;;;5060268;28;20727;-57
2021/05/18 16:26:49;;;;;;;0.83;0.40;;;14.70;99.90;13.30;96381.00;;;;5055833;28;20684;-57
2021/05/18 16:29:38;;;;;;;1.80;0.30;;;14.40;99.90;13.10;96382.00;;;;5058377;28;20203;-55
2021/05/18 16:32:26;;;;;;;3.53;0.37;;;14.10;99.90;13.10;96388.00;;;;5063271;28;20227;-56
2021/05/18 16:35:15;;;;;;;0.20;0.20;;;13.80;99.90;13.10;96394.00;;;;5061817;28;20207;-55
2021/05/18 16:38:04;;;;;;;0.43;0.30;;;13.80;99.90;12.90;96391.00;;;;5050647;28;20208;-52
2021/05/18 16:40:53;;;;;;;1.30;0.50;;;14.30;99.90;12.80;96404.00;;;;5052579;28;20846;-56
2021/05/18 16:43:44;;;;;;;0.50;0.50;;;13.60;99.90;12.70;96402.00;;;;5060435;28;20231;-55
2021/05/18 16:46:32;;;;;;;3.60;0.60;;;13.50;99.90;12.60;96413.00;;;;5048372;28;20208;-54
2021/05/18 16:49:20;;;;;;;0.30;0.30;;;13.40;99.90;12.70;96409.00;;;;5051987;28;20678;-55
2021/05/18 16:52:09;;;;;;;0.30;0.30;;;13.30;99.90;12.80;96420.00;;;;5052588;28;20719;-55
2021/05/18 16:54:58;;;;;;;0.50;0.50;;;13.30;99.90;12.70;96420.00;;;;5053670;28;20215;-56
2021/05/18 16:57:46;;;;;;;1.43;0.50;;;13.30;99.90;12.60;96420.00;;;;5052232;28;20201;-54